aviador You're here:

CYWK Decoded Metar

WABUSH in NL, CANADA
Report Time2018-05-20 23:00:00
UTC Time2018-05-20 23:21:31
Flight Rules vfr VFR
Wind290° at 11 Gusting to 16 kt
W.Decomp.*RWY 36: 7.2 kt HW 8.3 kt LCW
W.Rank290° ranks 4
Current wind is above 290° avg. (9.9)
Visibility9999 m
Phenomena:N/A
Clouds:Few 030 Hf
Scattered 110 Hf
Broken 230 Hf
Expected CloudBase > 4,400 ft AGL from Temp-Dew spread
Ceiling23,000 ft
Temp05°C (ISA -6)
Dew Point-6°C (45% RH)
AAT-1.7°C
QNH1003 hPa
Density Alt1,437 ft
Elevation1,808 ft
Report Wrong Elevation
Raw Report
CYWK 202300Z 29011G16KT 15SM FEW030 SCT110 BKN230 05/M06 A2963 RMK
CF1AS2CI2 SLP059=

Extra information for CYWK:More info

Metar Taf Metar & Taf Last 4 Metars F.Rules Stats Wind Profile Meteogram Temp Stats Airport Information Weather charts Add Link Nearby VenuesMetar ALERT Operation Metar Decoded Social comments